createdAt,value
2018-09-20T00:00:29.272Z,48.9
2018-09-20T00:01:01.326Z,48.9
2018-09-20T00:01:33.392Z,48.9
2018-09-20T00:02:05.433Z,48.9
2018-09-20T00:02:37.494Z,49.1
2018-09-20T00:03:09.494Z,49.1
2018-09-20T00:03:41.545Z,49
2018-09-20T00:04:13.599Z,49.1
2018-09-20T00:04:45.645Z,48.9
2018-09-20T00:05:17.684Z,49.19
2018-09-20T00:05:49.871Z,49.19
2018-09-20T00:06:21.924Z,49.1
2018-09-20T00:06:53.968Z,49.1
2018-09-20T00:07:25.997Z,49.19
2018-09-20T00:07:58.099Z,49.1
2018-09-20T00:08:30.194Z,49.1
2018-09-20T00:09:02.253Z,49.19
2018-09-20T00:09:34.319Z,49
2018-09-20T00:10:06.380Z,49.1
2018-09-20T00:10:38.467Z,49.19
2018-09-20T00:11:10.523Z,49.1
2018-09-20T00:11:42.617Z,49.19
2018-09-20T00:12:14.748Z,49.39
2018-09-20T00:12:46.808Z,49
2018-09-20T00:13:18.917Z,49.19
2018-09-20T00:13:50.958Z,49.39
2018-09-20T00:14:23.021Z,49.29
2018-09-20T00:14:55.077Z,49.29
2018-09-20T00:15:27.078Z,49.29
2018-09-20T00:15:59.144Z,49
2018-09-20T00:16:31.203Z,49.39
2018-09-20T00:17:03.241Z,49.39
2018-09-20T00:17:35.320Z,49.19
2018-09-20T00:18:07.396Z,49.1
2018-09-20T00:18:39.422Z,49.29
2018-09-20T00:19:11.546Z,49.29
2018-09-20T00:19:43.692Z,49.29
2018-09-20T00:20:15.724Z,49.1
2018-09-20T00:20:47.822Z,49.19
2018-09-20T00:21:19.876Z,49.29
2018-09-20T00:21:51.932Z,49.1
2018-09-20T00:22:23.997Z,49.19
2018-09-20T00:22:56.074Z,49.17
2018-09-20T00:23:28.165Z,49
2018-09-20T00:24:00.299Z,49.29
2018-09-20T00:24:32.424Z,49.07
2018-09-20T00:25:04.502Z,49.29
2018-09-20T00:25:36.583Z,48.97
2018-09-20T00:26:08.656Z,49.55
2018-09-20T00:26:40.696Z,49.39
2018-09-20T00:27:12.760Z,49.39
2018-09-20T00:27:44.805Z,49.37
2018-09-20T00:28:16.856Z,49.37
2018-09-20T00:28:48.918Z,49.49
2018-09-20T00:29:20.957Z,49.17
2018-09-20T00:29:53.028Z,49.49
2018-09-20T00:30:25.063Z,49.49
2018-09-20T00:30:57.132Z,49.19
2018-09-20T00:31:29.176Z,49.17
2018-09-20T00:32:01.228Z,49.37
2018-09-20T00:32:33.247Z,49.17
2018-09-20T00:33:05.321Z,49.17
2018-09-20T00:33:37.315Z,49.27
2018-09-20T00:34:09.380Z,49.19
2018-09-20T00:34:41.443Z,49.17
2018-09-20T00:35:13.536Z,49.07
2018-09-20T00:35:45.585Z,49.19
2018-09-20T00:36:17.628Z,49.27
2018-09-20T00:36:49.793Z,49.07
2018-09-20T00:37:21.987Z,49.17
2018-09-20T00:37:54.116Z,49.39
2018-09-20T00:38:26.302Z,49.55
2018-09-20T00:38:58.311Z,49.17
2018-09-20T00:39:30.389Z,49.27
2018-09-20T00:40:02.453Z,49.46
2018-09-20T00:40:34.548Z,49.37
2018-09-20T00:41:06.601Z,49.46
2018-09-20T00:41:38.680Z,49.37
2018-09-20T00:42:10.697Z,49.27
2018-09-20T00:42:42.765Z,49.46
2018-09-20T00:43:14.843Z,49.27
2018-09-20T00:43:46.893Z,49.46
2018-09-20T00:44:18.949Z,49.65
2018-09-20T00:44:51.017Z,49.37
2018-09-20T00:45:23.032Z,49.65
2018-09-20T00:45:55.076Z,49.07
2018-09-20T00:46:27.141Z,49.46
2018-09-20T00:46:59.165Z,49.27
2018-09-20T00:47:31.216Z,49.07
2018-09-20T00:48:03.365Z,49.27
2018-09-20T00:48:35.446Z,49.27
2018-09-20T00:49:07.492Z,49.07
2018-09-20T00:49:39.555Z,49.37
2018-09-20T00:50:11.605Z,49.55
2018-09-20T00:50:43.677Z,49.37
2018-09-20T00:51:15.756Z,49.37
2018-09-20T00:51:47.837Z,49.37
2018-09-20T00:52:19.909Z,49.37
2018-09-20T00:52:51.950Z,49.65
2018-09-20T00:53:24.074Z,49.65
2018-09-20T00:53:56.247Z,49.65
2018-09-20T00:54:28.735Z,49.46
2018-09-20T00:55:00.795Z,49.65
2018-09-20T00:55:32.901Z,49.27
2018-09-20T00:56:04.951Z,49.37
2018-09-20T00:56:37.021Z,49.65
2018-09-20T00:57:09.096Z,49.27
2018-09-20T00:57:41.122Z,49.37
2018-09-20T00:58:13.245Z,49.27
2018-09-20T00:58:45.276Z,49.37
2018-09-20T00:59:17.300Z,49.46
2018-09-20T00:59:49.356Z,49.27
2018-09-20T01:00:21.480Z,49.37
2018-09-20T01:00:53.628Z,49.27
2018-09-20T01:01:25.663Z,49.27
2018-09-20T01:01:57.705Z,49.85
2018-09-20T01:02:29.825Z,49.37
2018-09-20T01:03:01.929Z,49.37
2018-09-20T01:03:33.985Z,49.37
2018-09-20T01:04:06.053Z,49.17
2018-09-20T01:04:38.136Z,49.65
2018-09-20T01:05:10.234Z,49.27
2018-09-20T01:05:42.321Z,49.65
2018-09-20T01:06:14.370Z,49.27
2018-09-20T01:06:46.474Z,49.75
2018-09-20T01:07:18.524Z,49.27
2018-09-20T01:07:50.606Z,49.55
2018-09-20T01:08:22.684Z,49.55
2018-09-20T01:08:54.714Z,49.55
2018-09-20T01:09:26.716Z,49.55
2018-09-20T01:09:58.795Z,49.55
2018-09-20T01:10:30.875Z,49.55
2018-09-20T01:11:02.947Z,49.55
2018-09-20T01:11:34.998Z,49.55
2018-09-20T01:12:07.195Z,49.55
2018-09-20T01:12:39.291Z,49.75
2018-09-20T01:13:11.345Z,49.27
2018-09-20T01:13:43.429Z,49.65
2018-09-20T01:14:15.497Z,49.46
2018-09-20T01:14:47.499Z,49.75
2018-09-20T01:15:19.532Z,49.46
2018-09-20T01:15:51.628Z,49.55
2018-09-20T01:16:23.698Z,49.55
2018-09-20T01:16:55.747Z,49.65
2018-09-20T01:17:27.848Z,49.46
2018-09-20T01:17:59.903Z,49.65
2018-09-20T01:18:31.971Z,49.46
2018-09-20T01:19:04.043Z,49.65
2018-09-20T01:19:36.213Z,49.55
2018-09-20T01:20:08.361Z,49.65
2018-09-20T01:20:40.405Z,49.65
2018-09-20T01:21:12.461Z,49.55
2018-09-20T01:21:44.544Z,49.55
2018-09-20T01:22:16.585Z,49.55
2018-09-20T01:22:48.631Z,49.55
2018-09-20T01:23:20.697Z,49.85
2018-09-20T01:23:52.744Z,49.55
2018-09-20T01:24:24.922Z,49.85
2018-09-20T01:24:57.020Z,49.85
2018-09-20T01:25:29.068Z,49.85
2018-09-20T01:26:01.144Z,49.37
2018-09-20T01:26:33.208Z,49.46
2018-09-20T01:27:05.276Z,49.95
2018-09-20T01:27:37.368Z,49.75
2018-09-20T01:28:09.433Z,49.85
2018-09-20T01:28:41.481Z,49.75
2018-09-20T01:29:13.531Z,49.95
2018-09-20T01:29:45.588Z,49.75
2018-09-20T01:30:17.644Z,49.65
2018-09-20T01:30:49.769Z,49.75
2018-09-20T01:31:21.924Z,49.75
2018-09-20T01:31:53.999Z,49.75
2018-09-20T01:32:26.037Z,49.85
2018-09-20T01:32:58.083Z,49.75
2018-09-20T01:33:30.158Z,49.65
2018-09-20T01:34:02.327Z,49.85
2018-09-20T01:34:34.449Z,49.85
2018-09-20T01:35:06.491Z,49.85
2018-09-20T01:35:38.584Z,49.75
2018-09-20T01:36:10.624Z,49.75
2018-09-20T01:36:42.704Z,49.55
2018-09-20T01:37:14.787Z,49.75
2018-09-20T01:37:46.844Z,49.55
2018-09-20T01:38:18.990Z,49.65
2018-09-20T01:38:51.164Z,49.75
2018-09-20T01:39:23.221Z,49.75
2018-09-20T01:39:55.330Z,49.65
2018-09-20T01:40:27.417Z,49.65
2018-09-20T01:40:59.472Z,49.65
2018-09-20T01:41:31.539Z,49.75
2018-09-20T01:42:03.687Z,49.55
2018-09-20T01:42:35.714Z,49.46
2018-09-20T01:43:07.782Z,49.55
2018-09-20T01:43:39.852Z,49.55
2018-09-20T01:44:11.899Z,49.55
2018-09-20T01:44:43.995Z,49.95
2018-09-20T01:45:16.052Z,49.55
2018-09-20T01:45:48.118Z,49.85
2018-09-20T01:46:20.219Z,49.92
2018-09-20T01:46:52.276Z,49.75
2018-09-20T01:47:24.355Z,49.85
2018-09-20T01:47:56.414Z,49.92
2018-09-20T01:48:28.441Z,49.73
2018-09-20T01:49:01.255Z,50.01
2018-09-20T01:49:33.334Z,49.65
2018-09-20T01:50:05.500Z,50.04
2018-09-20T01:50:37.526Z,49.65
2018-09-20T01:51:09.612Z,49.75
2018-09-20T01:51:41.654Z,49.85
2018-09-20T01:52:13.733Z,49.75
2018-09-20T01:52:45.970Z,49.75
2018-09-20T01:53:17.998Z,49.82
2018-09-20T01:53:50.132Z,49.63
2018-09-20T01:54:22.187Z,49.85
2018-09-20T01:54:54.269Z,49.55
2018-09-20T01:55:26.323Z,49.85
2018-09-20T01:55:58.363Z,49.63
2018-09-20T01:56:30.404Z,49.63
2018-09-20T01:57:02.468Z,50.01
2018-09-20T01:57:34.537Z,49.73
2018-09-20T01:58:06.568Z,49.65
2018-09-20T01:58:38.634Z,49.73
2018-09-20T01:59:10.696Z,49.53
2018-09-20T01:59:42.805Z,49.65
2018-09-20T02:00:14.837Z,49.95
2018-09-20T02:00:46.914Z,49.73
2018-09-20T02:01:19.093Z,49.92
2018-09-20T02:01:51.156Z,49.92
2018-09-20T02:02:23.227Z,49.73
2018-09-20T02:02:55.268Z,49.92
2018-09-20T02:03:27.340Z,49.73
2018-09-20T02:03:59.395Z,49.92
2018-09-20T02:04:31.584Z,49.73
2018-09-20T02:05:03.642Z,49.92
2018-09-20T02:05:35.685Z,49.73
2018-09-20T02:06:07.781Z,50.01
2018-09-20T02:06:39.836Z,49.92
2018-09-20T02:07:11.971Z,49.82
2018-09-20T02:07:44.157Z,49.82
2018-09-20T02:08:16.219Z,49.82
2018-09-20T02:08:48.288Z,49.82
2018-09-20T02:09:20.342Z,49.92
2018-09-20T02:09:52.401Z,49.92
2018-09-20T02:10:24.413Z,49.92
2018-09-20T02:10:56.468Z,49.82
2018-09-20T02:11:28.535Z,49.82
2018-09-20T02:12:00.629Z,49.82
2018-09-20T02:12:32.779Z,49.92
2018-09-20T02:13:04.868Z,50.11
2018-09-20T02:13:36.952Z,49.73
2018-09-20T02:14:08.958Z,49.82
2018-09-20T02:14:41.053Z,50.01
2018-09-20T02:15:13.138Z,49.73
2018-09-20T02:15:45.217Z,50.11
2018-09-20T02:16:17.290Z,50.21
2018-09-20T02:16:49.326Z,50.11
2018-09-20T02:17:21.364Z,50.11
2018-09-20T02:17:53.440Z,50.01
2018-09-20T02:18:25.524Z,50.01
2018-09-20T02:18:57.591Z,50.11
2018-09-20T02:19:29.613Z,50.11
2018-09-20T02:20:01.667Z,50.01
2018-09-20T02:20:33.717Z,50.01
2018-09-20T02:21:05.863Z,49.73
2018-09-20T02:21:37.951Z,50.01
2018-09-20T02:22:09.990Z,50.01
2018-09-20T02:22:42.064Z,49.92
2018-09-20T02:23:14.135Z,50.21
2018-09-20T02:23:46.293Z,49.92
2018-09-20T02:24:18.444Z,49.73
2018-09-20T02:24:50.524Z,49.92
2018-09-20T02:25:22.598Z,49.92
2018-09-20T02:25:54.629Z,50.11
2018-09-20T02:26:26.648Z,50.31
2018-09-20T02:26:58.733Z,49.73
2018-09-20T02:27:30.772Z,49.63
2018-09-20T02:28:02.821Z,50.01
2018-09-20T02:28:34.867Z,50.01
2018-09-20T02:29:06.936Z,49.73
2018-09-20T02:29:39.025Z,50.31
2018-09-20T02:30:11.239Z,49.73
2018-09-20T02:30:44.205Z,50.11
2018-09-20T02:31:16.311Z,50.11
2018-09-20T02:31:48.341Z,50.11
2018-09-20T02:32:20.377Z,50.4
2018-09-20T02:32:52.427Z,50.21
2018-09-20T02:33:24.457Z,50.11
2018-09-20T02:33:56.516Z,50.11
2018-09-20T02:34:28.670Z,50.21
2018-09-20T02:35:00.756Z,50.31
2018-09-20T02:35:32.807Z,50.21
2018-09-20T02:36:04.879Z,49.73
2018-09-20T02:36:36.961Z,50.21
2018-09-20T02:37:09.017Z,50.21
2018-09-20T02:37:41.096Z,50.21
2018-09-20T02:38:13.187Z,50.4
2018-09-20T02:38:45.288Z,50.11
2018-09-20T02:39:17.348Z,50.11
2018-09-20T02:39:49.471Z,50.11
2018-09-20T02:40:21.552Z,50.21
2018-09-20T02:40:53.630Z,50.21
2018-09-20T02:41:25.710Z,50.11
2018-09-20T02:41:57.795Z,50.31
2018-09-20T02:42:29.840Z,50.21
2018-09-20T02:43:02.014Z,50.11
2018-09-20T02:43:34.076Z,49.92
2018-09-20T02:44:06.148Z,50.21
2018-09-20T02:44:38.197Z,50.21
2018-09-20T02:45:10.266Z,50.5
2018-09-20T02:45:42.334Z,50.01
2018-09-20T02:46:14.423Z,50.59
2018-09-20T02:46:46.503Z,49.82
2018-09-20T02:47:18.534Z,50.59
2018-09-20T02:47:50.596Z,50.5
2018-09-20T02:48:22.657Z,50.11
2018-09-20T02:48:54.688Z,49.82
2018-09-20T02:49:26.773Z,50.59
2018-09-20T02:49:58.862Z,50.59
2018-09-20T02:50:30.923Z,50.01
2018-09-20T02:51:02.994Z,49.92
2018-09-20T02:51:35.061Z,50.01
2018-09-20T02:52:07.139Z,50.59
2018-09-20T02:52:39.211Z,50.59
2018-09-20T02:53:11.222Z,50.11
2018-09-20T02:53:43.275Z,50.59
2018-09-20T02:54:15.446Z,50.11
2018-09-20T02:54:47.583Z,50.01
2018-09-20T02:55:19.678Z,50.11
2018-09-20T02:55:51.741Z,50.01
2018-09-20T02:56:23.832Z,50.59
2018-09-20T02:56:55.896Z,50.01
2018-09-20T02:57:28.027Z,50.5
2018-09-20T02:58:00.110Z,50.5
2018-09-20T02:58:32.184Z,50.01
2018-09-20T02:59:04.243Z,50.31
2018-09-20T02:59:36.301Z,50.31
2018-09-20T03:00:08.436Z,50.31
2018-09-20T03:00:40.496Z,50.11
2018-09-20T03:01:12.589Z,50.11
2018-09-20T03:01:44.641Z,49.92
2018-09-20T03:02:16.665Z,50.31
2018-09-20T03:02:48.773Z,50.31
2018-09-20T03:03:20.812Z,50.31
2018-09-20T03:03:52.894Z,49.92
2018-09-20T03:04:24.971Z,50.21
2018-09-20T03:04:57.051Z,50.31
2018-09-20T03:05:29.060Z,50.4
2018-09-20T03:06:01.097Z,50.31
2018-09-20T03:06:33.162Z,50.4
2018-09-20T03:07:05.181Z,50.5
2018-09-20T03:07:37.343Z,50.31
2018-09-20T03:08:09.435Z,50.5
2018-09-20T03:08:42.059Z,49.82
2018-09-20T03:09:14.113Z,50.4
2018-09-20T03:09:46.168Z,50.5
2018-09-20T03:10:18.223Z,50.4
2018-09-20T03:10:50.301Z,50.5
2018-09-20T03:11:22.420Z,50.01
2018-09-20T03:11:54.460Z,50.4
2018-09-20T03:12:26.480Z,50.21
2018-09-20T03:12:58.526Z,50.21
2018-09-20T03:13:30.515Z,50.21
2018-09-20T03:14:02.571Z,50.4
2018-09-20T03:14:34.622Z,49.92
2018-09-20T03:15:06.658Z,50.21
2018-09-20T03:15:38.696Z,50.21
2018-09-20T03:16:10.749Z,50.21
2018-09-20T03:16:42.806Z,50.11
2018-09-20T03:17:14.867Z,50.59
2018-09-20T03:17:46.940Z,50.21
2018-09-20T03:18:19.056Z,50.11
2018-09-20T03:18:51.136Z,50.01
2018-09-20T03:19:23.212Z,50.11
2018-09-20T03:19:55.248Z,50.79
2018-09-20T03:20:27.292Z,49.92
2018-09-20T03:20:59.365Z,50.11
2018-09-20T03:21:31.422Z,50.21
2018-09-20T03:22:03.491Z,50.11
2018-09-20T03:22:35.562Z,50.21
2018-09-20T03:23:07.640Z,50.21
2018-09-20T03:23:39.734Z,50.01
2018-09-20T03:24:11.941Z,50.59
2018-09-20T03:24:43.976Z,50.31
2018-09-20T03:25:16.039Z,50.79
2018-09-20T03:25:48.111Z,50.21
2018-09-20T03:26:20.274Z,50.21
2018-09-20T03:26:52.499Z,50.21
2018-09-20T03:27:24.568Z,50.69
2018-09-20T03:27:56.642Z,50.21
2018-09-20T03:28:28.689Z,50.21
2018-09-20T03:29:00.715Z,49.82
2018-09-20T03:29:32.780Z,50.01
2018-09-20T03:30:04.846Z,50.69
2018-09-20T03:30:37.057Z,50.01
2018-09-20T03:31:08.963Z,50.4
2018-09-20T03:31:41.039Z,50.5
2018-09-20T03:32:13.123Z,50.21
2018-09-20T03:32:45.195Z,49.92
2018-09-20T03:33:17.371Z,50.5
2018-09-20T03:33:49.453Z,50.5
2018-09-20T03:34:21.532Z,49.92
2018-09-20T03:34:53.697Z,50.4
2018-09-20T03:35:25.766Z,50.5
2018-09-20T03:35:57.820Z,50.11
2018-09-20T03:36:29.876Z,50.4
2018-09-20T03:37:01.944Z,50.21
2018-09-20T03:37:33.988Z,50.11
2018-09-20T03:38:06.053Z,50.5
2018-09-20T03:38:38.107Z,50.18
2018-09-20T03:39:10.174Z,50.21
2018-09-20T03:39:42.824Z,50.11
2018-09-20T03:40:14.883Z,50.4
2018-09-20T03:40:46.953Z,50.09
2018-09-20T03:41:19.098Z,50.38
2018-09-20T03:41:51.122Z,50.28
2018-09-20T03:42:23.246Z,50.11
2018-09-20T03:42:55.287Z,50.5
2018-09-20T03:43:27.312Z,50.38
2018-09-20T03:43:59.357Z,50.28
2018-09-20T03:44:31.441Z,50.18
2018-09-20T03:45:03.512Z,50.4
2018-09-20T03:45:35.573Z,50.09
2018-09-20T03:46:07.682Z,50.38
2018-09-20T03:46:39.764Z,50.18
2018-09-20T03:47:11.824Z,50.18
2018-09-20T03:47:43.860Z,50.18
2018-09-20T03:48:15.938Z,50.28
2018-09-20T03:48:47.976Z,50.38
2018-09-20T03:49:20.001Z,50.31
2018-09-20T03:49:52.006Z,50.47
2018-09-20T03:50:24.114Z,50.57
2018-09-20T03:50:56.202Z,50.38
2018-09-20T03:51:28.269Z,50.57
2018-09-20T03:52:00.321Z,50.57
2018-09-20T03:52:32.468Z,50.18
2018-09-20T03:53:04.535Z,50.18
2018-09-20T03:53:36.618Z,50.28
2018-09-20T03:54:08.670Z,50.18
2018-09-20T03:54:40.668Z,50.28
2018-09-20T03:55:12.705Z,50.18
2018-09-20T03:55:44.750Z,50.28
2018-09-20T03:56:16.835Z,50.67
2018-09-20T03:56:48.951Z,50.28
2018-09-20T03:57:21.017Z,50.38
2018-09-20T03:57:53.049Z,50.38
2018-09-20T03:58:25.105Z,50.38
2018-09-20T03:58:57.157Z,50.47
2018-09-20T03:59:29.267Z,50.47
2018-09-20T04:00:01.341Z,50.47
2018-09-20T04:00:33.420Z,50.69
2018-09-20T04:01:05.504Z,50.57
2018-09-20T04:01:37.698Z,50.38
2018-09-20T04:02:09.774Z,50.4
2018-09-20T04:02:41.843Z,50.18
2018-09-20T04:03:13.900Z,50.47
2018-09-20T04:03:45.970Z,50.47
2018-09-20T04:04:18.069Z,50.47
2018-09-20T04:04:50.147Z,50.67
2018-09-20T04:05:22.221Z,50.28
2018-09-20T04:05:54.276Z,50.67
2018-09-20T04:06:26.318Z,50.57
2018-09-20T04:06:58.467Z,50.67
2018-09-20T04:07:30.534Z,50.67
2018-09-20T04:08:02.602Z,50.31
2018-09-20T04:08:34.712Z,50.28
2018-09-20T04:09:06.768Z,50.47
2018-09-20T04:09:39.029Z,50.38
2018-09-20T04:10:11.102Z,50.67
2018-09-20T04:10:43.204Z,50.38
2018-09-20T04:11:15.224Z,50.67
2018-09-20T04:11:47.252Z,50.31
2018-09-20T04:12:19.303Z,50.57
2018-09-20T04:12:51.392Z,50.4
2018-09-20T04:13:23.457Z,50.76
2018-09-20T04:13:55.498Z,50.76
2018-09-20T04:14:27.664Z,50.76
2018-09-20T04:14:59.828Z,50.96
2018-09-20T04:15:32.013Z,50.38
2018-09-20T04:16:04.083Z,50.67
2018-09-20T04:16:36.094Z,50.28
2018-09-20T04:17:08.161Z,50.67
2018-09-20T04:17:40.188Z,50.98
2018-09-20T04:18:12.290Z,50.28
2018-09-20T04:18:44.333Z,50.76
2018-09-20T04:19:16.410Z,50.67
2018-09-20T04:19:48.461Z,50.67
2018-09-20T04:20:20.530Z,50.76
2018-09-20T04:20:52.603Z,50.76
2018-09-20T04:21:24.684Z,50.76
2018-09-20T04:21:56.759Z,50.86
2018-09-20T04:22:28.812Z,50.76
2018-09-20T04:23:00.872Z,50.57
2018-09-20T04:23:32.970Z,50.96
2018-09-20T04:24:05.006Z,50.57
2018-09-20T04:24:37.069Z,50.86
2018-09-20T04:25:09.143Z,50.86
2018-09-20T04:25:41.207Z,50.18
2018-09-20T04:26:13.300Z,50.86
2018-09-20T04:26:45.372Z,50.76
2018-09-20T04:27:17.401Z,50.76
2018-09-20T04:27:49.472Z,50.76
2018-09-20T04:28:21.481Z,50.67
2018-09-20T04:28:53.558Z,50.67
2018-09-20T04:29:25.621Z,50.76
2018-09-20T04:29:57.716Z,50.86
2018-09-20T04:30:29.779Z,50.76
2018-09-20T04:31:01.779Z,50.67
2018-09-20T04:31:33.883Z,50.18
2018-09-20T04:32:06.003Z,50.67
2018-09-20T04:32:38.098Z,50.76
2018-09-20T04:33:10.179Z,50.67
2018-09-20T04:33:42.312Z,50.86
2018-09-20T04:34:14.352Z,50.76
2018-09-20T04:34:46.423Z,50.67
2018-09-20T04:35:18.510Z,50.76
2018-09-20T04:35:50.590Z,50.86
2018-09-20T04:36:22.660Z,50.86
2018-09-20T04:36:54.724Z,50.86
2018-09-20T04:37:26.856Z,51.05
2018-09-20T04:37:58.915Z,51.05
2018-09-20T04:38:30.994Z,50.76
2018-09-20T04:39:03.076Z,50.67
2018-09-20T04:39:35.134Z,50.76
2018-09-20T04:40:07.204Z,51.25
2018-09-20T04:40:39.231Z,50.57
2018-09-20T04:41:11.289Z,50.67
2018-09-20T04:41:43.385Z,50.67
2018-09-20T04:42:15.414Z,51.25
2018-09-20T04:42:47.430Z,51.15
2018-09-20T04:43:19.455Z,51.25
2018-09-20T04:43:51.575Z,50.57
2018-09-20T04:44:23.612Z,51.25
2018-09-20T04:44:55.603Z,51.15
2018-09-20T04:45:27.660Z,51.25
2018-09-20T04:45:59.689Z,50.47
2018-09-20T04:46:31.705Z,51.25
2018-09-20T04:47:03.751Z,51.25
2018-09-20T04:47:35.815Z,51.25
2018-09-20T04:48:08.011Z,51.25
2018-09-20T04:48:40.961Z,51.25
2018-09-20T04:49:12.987Z,51.34
2018-09-20T04:49:45.029Z,50.57
2018-09-20T04:50:17.069Z,50.57
2018-09-20T04:50:49.092Z,50.67
2018-09-20T04:51:21.165Z,51.25
2018-09-20T04:51:53.386Z,51.25
2018-09-20T04:52:25.548Z,51.15
2018-09-20T04:52:57.586Z,51.25
2018-09-20T04:53:29.697Z,51.25
2018-09-20T04:54:01.808Z,50.57
2018-09-20T04:54:33.863Z,51.15
2018-09-20T04:55:05.939Z,51.15
2018-09-20T04:55:38.065Z,51.25
2018-09-20T04:56:10.174Z,51.15
2018-09-20T04:56:42.377Z,51.15
2018-09-20T04:57:14.455Z,50.47
2018-09-20T04:57:46.524Z,50.57
2018-09-20T04:58:18.611Z,51.05
2018-09-20T04:58:50.634Z,50.57
2018-09-20T04:59:22.690Z,51.15
2018-09-20T04:59:54.829Z,51.25
2018-09-20T05:00:26.977Z,51.25
2018-09-20T05:00:59.047Z,51.15
2018-09-20T05:01:31.178Z,51.15
2018-09-20T05:02:04.047Z,51.15
2018-09-20T05:02:36.120Z,51.05
2018-09-20T05:03:08.219Z,51.05
2018-09-20T05:03:40.249Z,50.47
2018-09-20T05:04:12.320Z,50.57
2018-09-20T05:04:44.393Z,51.05
2018-09-20T05:05:16.418Z,51.15
2018-09-20T05:05:48.507Z,51.05
2018-09-20T05:06:20.579Z,51.15
2018-09-20T05:06:52.668Z,51.05
2018-09-20T05:07:24.723Z,50.96
2018-09-20T05:07:56.782Z,51.05
2018-09-20T05:08:28.853Z,51.05
2018-09-20T05:09:00.947Z,50.57
2018-09-20T05:09:33.084Z,50.96
2018-09-20T05:10:05.141Z,50.57
2018-09-20T05:10:37.242Z,50.57
2018-09-20T05:11:09.285Z,51.05
2018-09-20T05:11:41.364Z,51.05
2018-09-20T05:12:13.429Z,51.05
2018-09-20T05:12:45.609Z,50.67
2018-09-20T05:13:17.641Z,50.96
2018-09-20T05:13:49.698Z,50.96
2018-09-20T05:14:21.798Z,50.67
2018-09-20T05:14:53.849Z,51.05
2018-09-20T05:15:25.908Z,51.05
2018-09-20T05:15:57.954Z,51.05
2018-09-20T05:16:30.016Z,50.96
2018-09-20T05:17:02.156Z,51.05
2018-09-20T05:17:34.294Z,51.05
2018-09-20T05:18:06.324Z,50.96
2018-09-20T05:18:38.376Z,50.96
2018-09-20T05:19:10.457Z,50.67
2018-09-20T05:19:42.634Z,50.96
2018-09-20T05:20:14.717Z,50.67
2018-09-20T05:20:46.882Z,50.96
2018-09-20T05:21:18.973Z,50.96
2018-09-20T05:21:51.043Z,51.05
2018-09-20T05:22:23.083Z,50.96
2018-09-20T05:22:55.153Z,50.96
2018-09-20T05:23:27.328Z,51.05
2018-09-20T05:23:59.394Z,50.96
2018-09-20T05:24:31.384Z,51.05
2018-09-20T05:25:03.440Z,50.76
2018-09-20T05:25:35.505Z,51.05
2018-09-20T05:26:07.561Z,51.05
2018-09-20T05:26:39.613Z,50.96
2018-09-20T05:27:11.683Z,51.15
2018-09-20T05:27:44.480Z,50.86
2018-09-20T05:28:16.535Z,51.05
2018-09-20T05:28:48.676Z,51.05
2018-09-20T05:29:20.729Z,51.15
2018-09-20T05:29:52.783Z,50.76
2018-09-20T05:30:24.882Z,51.05
2018-09-20T05:30:56.929Z,51.34
2018-09-20T05:31:28.963Z,50.76
2018-09-20T05:32:01.003Z,50.76
2018-09-20T05:32:33.800Z,51.05
2018-09-20T05:33:05.908Z,51.44
2018-09-20T05:33:38.022Z,50.76
2018-09-20T05:34:10.079Z,51.34
2018-09-20T05:34:42.168Z,51.15
2018-09-20T05:35:14.476Z,51.53
2018-09-20T05:35:46.584Z,50.96
2018-09-20T05:36:18.641Z,51.34
2018-09-20T05:36:50.696Z,51.44
2018-09-20T05:37:23.274Z,50.86
2018-09-20T05:37:55.308Z,50.96
2018-09-20T05:38:27.350Z,51.44
2018-09-20T05:38:59.320Z,50.96
2018-09-20T05:39:31.339Z,51.05
2018-09-20T05:40:03.385Z,51.15
2018-09-20T05:40:35.423Z,51.34
2018-09-20T05:41:07.539Z,50.76
2018-09-20T05:41:40.222Z,51.53
2018-09-20T05:42:12.278Z,50.96
2018-09-20T05:42:44.441Z,51.25
2018-09-20T05:43:16.509Z,51.15
2018-09-20T05:43:48.551Z,51.44
2018-09-20T05:44:20.596Z,51.44
2018-09-20T05:44:52.656Z,51.34
2018-09-20T05:45:24.700Z,51.34
2018-09-20T05:45:56.762Z,51.34
2018-09-20T05:46:28.909Z,51.34
2018-09-20T05:47:00.996Z,51.15
2018-09-20T05:47:33.051Z,51.05
2018-09-20T05:48:05.094Z,51.44
2018-09-20T05:48:37.131Z,51.05
2018-09-20T05:49:09.190Z,51.05
2018-09-20T05:49:41.346Z,51.44
2018-09-20T05:50:13.582Z,51.15
2018-09-20T05:50:45.620Z,51.44
2018-09-20T05:51:17.844Z,51.05
2018-09-20T05:51:49.930Z,51.44
2018-09-20T05:52:21.975Z,51.15
2018-09-20T05:52:54.007Z,51.15
2018-09-20T05:53:26.052Z,51.44
2018-09-20T05:53:58.146Z,51.44
2018-09-20T05:54:30.195Z,51.44
2018-09-20T05:55:02.247Z,51.15
2018-09-20T05:55:34.313Z,51.34
2018-09-20T05:56:06.327Z,51.15
2018-09-20T05:56:38.379Z,51.34
2018-09-20T05:57:10.573Z,51.34
2018-09-20T05:57:42.730Z,51.44
2018-09-20T05:58:14.804Z,51.34
2018-09-20T05:58:46.845Z,51.44
2018-09-20T05:59:18.939Z,51.05
2018-09-20T05:59:51.082Z,51.44
2018-09-20T06:00:23.179Z,51.44
2018-09-20T06:00:55.545Z,51.34
2018-09-20T06:01:27.704Z,51.05
2018-09-20T06:01:59.825Z,51.34
2018-09-20T06:02:31.976Z,51.44
2018-09-20T06:03:04.122Z,51.15
2018-09-20T06:03:36.137Z,51.25
2018-09-20T06:04:08.193Z,51.05
2018-09-20T06:04:40.234Z,51.44
2018-09-20T06:05:12.227Z,50.86
2018-09-20T06:05:44.295Z,51.05
2018-09-20T06:06:16.368Z,50.86
2018-09-20T06:06:48.491Z,51.44
2018-09-20T06:07:20.801Z,51.44
2018-09-20T06:07:52.814Z,50.89
2018-09-20T06:08:24.866Z,51.05
2018-09-20T06:08:56.920Z,51.34
2018-09-20T06:09:29.009Z,50.86
2018-09-20T06:10:01.041Z,51.05
2018-09-20T06:10:33.126Z,51.15
2018-09-20T06:11:05.203Z,51.07
2018-09-20T06:11:37.246Z,50.76
2018-09-20T06:12:09.455Z,51.07
2018-09-20T06:12:41.504Z,50.89
2018-09-20T06:13:13.602Z,51.07
2018-09-20T06:13:45.795Z,50.79
2018-09-20T06:14:17.849Z,50.79
2018-09-20T06:14:49.909Z,50.89
2018-09-20T06:15:21.960Z,50.98
2018-09-20T06:15:54.044Z,50.98
2018-09-20T06:16:26.203Z,50.98
2018-09-20T06:16:58.306Z,51.07
2018-09-20T06:17:30.345Z,51.17
2018-09-20T06:18:02.441Z,50.79
2018-09-20T06:18:34.989Z,51.46
2018-09-20T06:19:07.066Z,51.07
2018-09-20T06:19:39.188Z,50.79
2018-09-20T06:20:11.230Z,50.98
2018-09-20T06:20:43.416Z,50.89
2018-09-20T06:21:15.488Z,50.79
2018-09-20T06:21:47.578Z,50.79
2018-09-20T06:22:20.026Z,51.17
2018-09-20T06:22:52.151Z,50.98
2018-09-20T06:23:24.323Z,51.07
2018-09-20T06:23:56.536Z,50.98
2018-09-20T06:24:28.526Z,51.07
2018-09-20T06:25:00.684Z,51.07
2018-09-20T06:25:33.069Z,50.98
2018-09-20T06:26:05.176Z,51.07
2018-09-20T06:26:37.247Z,51.56
2018-09-20T06:27:09.271Z,50.89
2018-09-20T06:27:41.385Z,51.07
2018-09-20T06:28:13.452Z,50.98
2018-09-20T06:28:45.516Z,51.07
2018-09-20T06:29:17.577Z,51.07
2018-09-20T06:29:49.624Z,50.89
2018-09-20T06:30:21.799Z,51.07
2018-09-20T06:30:53.868Z,51.07
2018-09-20T06:31:25.896Z,50.98
2018-09-20T06:31:57.956Z,50.98
2018-09-20T06:32:29.964Z,51.01
2018-09-20T06:33:02.214Z,51.2
2018-09-20T06:33:34.255Z,51.01
2018-09-20T06:34:06.387Z,51.01
2018-09-20T06:34:38.461Z,51.1
2018-09-20T06:35:10.550Z,50.62
2018-09-20T06:35:42.604Z,50.81
2018-09-20T06:36:15.522Z,51.1
2018-09-20T06:36:47.600Z,51.01
2018-09-20T06:37:19.626Z,50.71
2018-09-20T06:37:51.707Z,50.71
2018-09-20T06:38:23.794Z,51.1
2018-09-20T06:38:55.848Z,50.62
2018-09-20T06:39:27.945Z,51.2
2018-09-20T06:40:00.069Z,51.01
2018-09-20T06:40:33.022Z,50.71
2018-09-20T06:41:05.111Z,50.71
2018-09-20T06:41:37.248Z,50.62
2018-09-20T06:42:09.354Z,50.71
2018-09-20T06:42:41.408Z,51.2
2018-09-20T06:43:13.505Z,51.2
2018-09-20T06:43:45.559Z,51.2
2018-09-20T06:44:17.755Z,51.1
2018-09-20T06:44:49.896Z,51.32
2018-09-20T06:45:21.979Z,51.13
2018-09-20T06:45:54.023Z,51.1
2018-09-20T06:46:26.191Z,51.23
2018-09-20T06:46:58.382Z,51.13
2018-09-20T06:47:30.581Z,51.23
2018-09-20T06:48:02.690Z,51.23
2018-09-20T06:48:34.845Z,51.13
2018-09-20T06:49:06.997Z,51.13
2018-09-20T06:49:39.074Z,51.42
2018-09-20T06:50:11.926Z,50.65
2018-09-20T06:50:43.965Z,50.65
2018-09-20T06:51:16.130Z,51.23
2018-09-20T06:51:48.451Z,51.23
2018-09-20T06:52:20.567Z,51.42
2018-09-20T06:52:52.662Z,50.65
2018-09-20T06:53:24.916Z,51.32
2018-09-20T06:53:57.271Z,50.74
2018-09-20T06:54:29.525Z,51.42